Sargeant, Minnesota
Current Conditions -  °F | °C
As of 12:16 PM on Monday 24 Nov 2014 (Local Time) from KAUM Reporting Station
Overcast Overcast  
Wind Chill:   Ceiling: 1400
Heat Index: 18°   Visibility: 7mi
Dew Point: 14°   Wind: 20mph
Humidity: 86%   Direction: 290°WNW
Pressure: 29.45"   Gusts: 32mph
Location:  43.81°N, 92.8°W
Report Text: KAUM 241816Z AUTO 29017G28KT 7SM OVC014 M08/M10 A2945 RMK AO2
Loading
Personal Weather Stations






























Interactive Weather Map New forecast layout! Learn more

10-Day Weather Forecast

Advertisements
Track Severe Weather on mobile